createdAt,value
2022-10-26T00:02:16.519Z,6.68
2022-10-26T00:05:21.099Z,11.07
2022-10-26T00:08:24.880Z,7.70
2022-10-26T00:11:28.848Z,6.95
2022-10-26T00:14:32.479Z,6.38
2022-10-26T00:17:36.465Z,3.97
2022-10-26T00:20:39.410Z,4.78
2022-10-26T00:23:42.892Z,3.85
2022-10-26T00:26:46.556Z,5.20
2022-10-26T00:29:50.485Z,5.65
2022-10-26T00:32:54.732Z,4.53
2022-10-26T00:35:59.072Z,4.93
2022-10-26T00:39:01.893Z,4.43
2022-10-26T00:42:05.848Z,5.40
2022-10-26T00:45:30.278Z,4.97
2022-10-26T00:48:39.861Z,5.23
2022-10-26T00:51:47.387Z,5.60
2022-10-26T00:54:52.622Z,5.93
2022-10-26T00:57:56.667Z,4.70
2022-10-26T01:01:00.645Z,4.93
2022-10-26T01:04:04.676Z,5.30
2022-10-26T01:07:09.693Z,5.35
2022-10-26T01:10:14.570Z,6.90
2022-10-26T01:13:19.258Z,6.78
2022-10-26T01:16:46.644Z,5.00
2022-10-26T01:19:58.290Z,4.90
2022-10-26T01:23:04.951Z,4.68
2022-10-26T01:26:44.301Z,5.97
2022-10-26T01:30:25.857Z,3.92
2022-10-26T01:33:40.947Z,11.43
2022-10-26T01:36:56.316Z,4.07
2022-10-26T01:40:22.625Z,3.80
2022-10-26T01:43:27.546Z,3.83
2022-10-26T01:46:37.523Z,5.55
2022-10-26T01:50:02.266Z,2.65
2022-10-26T01:53:06.171Z,2.43
2022-10-26T01:56:19.724Z,2.95
2022-10-26T01:59:32.215Z,1.63
2022-10-26T02:02:38.864Z,2.20
2022-10-26T02:06:00.870Z,2.75
2022-10-26T02:09:16.342Z,2.77
2022-10-26T02:12:48.621Z,3.72
2022-10-26T02:15:59.650Z,4.30
2022-10-26T02:19:20.593Z,4.63
2022-10-26T02:22:40.503Z,4.85
2022-10-26T02:25:52.624Z,6.40
2022-10-26T02:29:01.547Z,6.88
2022-10-26T02:32:07.584Z,4.50
2022-10-26T02:35:12.540Z,2.95
2022-10-26T02:38:20.469Z,5.80
2022-10-26T02:41:26.758Z,9.50
2022-10-26T02:44:37.147Z,10.07
2022-10-26T02:47:40.158Z,6.80
2022-10-26T02:51:42.225Z,7.00
2022-10-26T02:55:01.454Z,6.47
2022-10-26T02:58:13.519Z,5.10
2022-10-26T03:01:17.270Z,4.22
2022-10-26T03:04:21.658Z,6.13
2022-10-26T03:07:26.129Z,8.13
2022-10-26T03:10:30.552Z,9.77
2022-10-26T03:13:33.393Z,10.17
2022-10-26T03:16:37.352Z,11.43
2022-10-26T03:19:40.164Z,10.48
2022-10-26T03:22:43.656Z,13.07
2022-10-26T03:25:46.548Z,14.00
2022-10-26T03:28:49.737Z,15.17
2022-10-26T03:31:55.068Z,15.38
2022-10-26T03:34:58.433Z,15.63
2022-10-26T03:38:01.380Z,13.65
2022-10-26T03:41:04.524Z,13.48
2022-10-26T03:44:08.263Z,22.17
2022-10-26T03:47:12.306Z,16.13
2022-10-26T03:50:19.069Z,20.27
2022-10-26T03:53:22.793Z,18.75
2022-10-26T03:56:27.722Z,15.20
2022-10-26T03:59:31.380Z,8.87
2022-10-26T04:02:35.074Z,5.30
2022-10-26T04:05:39.091Z,5.43
2022-10-26T04:08:42.796Z,4.60
2022-10-26T04:11:46.346Z,6.35
2022-10-26T04:14:50.088Z,4.20
2022-10-26T04:18:04.093Z,3.75
2022-10-26T04:21:07.036Z,2.88
2022-10-26T04:24:12.542Z,4.80
2022-10-26T04:27:16.218Z,4.30
2022-10-26T04:30:20.776Z,2.83
2022-10-26T04:33:23.795Z,4.28
2022-10-26T04:36:27.605Z,5.30
2022-10-26T04:39:31.141Z,5.00
2022-10-26T04:42:42.502Z,3.50
2022-10-26T04:45:45.535Z,2.67
2022-10-26T04:48:49.665Z,3.22
2022-10-26T04:51:53.584Z,2.90
2022-10-26T04:54:57.243Z,2.20
2022-10-26T04:58:01.545Z,3.42
2022-10-26T05:01:06.070Z,3.53
2022-10-26T05:04:10.131Z,3.55
2022-10-26T05:07:13.367Z,3.00
2022-10-26T05:10:17.151Z,2.20
2022-10-26T05:13:20.762Z,2.33
2022-10-26T05:16:24.738Z,2.10
2022-10-26T05:19:28.312Z,1.92
2022-10-26T05:22:32.264Z,2.00
2022-10-26T05:25:37.675Z,1.75
2022-10-26T05:28:41.288Z,2.00
2022-10-26T05:31:45.246Z,2.60
2022-10-26T05:34:49.092Z,1.70
2022-10-26T05:37:53.831Z,1.70
2022-10-26T05:41:00.426Z,1.40
2022-10-26T05:44:04.617Z,2.75
2022-10-26T05:47:08.171Z,2.93
2022-10-26T05:50:13.711Z,1.92
2022-10-26T05:53:17.323Z,1.70
2022-10-26T05:56:28.933Z,1.10
2022-10-26T05:59:32.375Z,1.20
2022-10-26T06:02:54.470Z,1.70
2022-10-26T06:06:01.630Z,2.58
2022-10-26T06:09:07.760Z,2.67
2022-10-26T06:12:13.567Z,2.60
2022-10-26T06:15:23.554Z,2.03
2022-10-26T06:18:51.856Z,1.37
2022-10-26T06:22:04.539Z,1.90
2022-10-26T06:25:21.979Z,2.40
2022-10-26T06:28:38.658Z,2.95
2022-10-26T06:31:41.571Z,2.30
2022-10-26T06:34:48.799Z,3.30
2022-10-26T06:37:54.020Z,2.47
2022-10-26T06:40:58.055Z,2.35
2022-10-26T06:44:03.310Z,2.33
2022-10-26T06:47:27.658Z,1.90
2022-10-26T06:50:36.905Z,1.77
2022-10-26T06:53:50.952Z,2.00
2022-10-26T06:56:54.860Z,2.25
2022-10-26T07:00:04.782Z,3.97
2022-10-26T07:03:07.695Z,5.30
2022-10-26T07:06:11.382Z,2.80
2022-10-26T07:09:14.716Z,2.90
2022-10-26T07:12:18.541Z,3.33
2022-10-26T07:15:22.265Z,2.53
2022-10-26T07:18:25.230Z,2.00
2022-10-26T07:21:29.377Z,2.90
2022-10-26T07:24:32.360Z,3.10
2022-10-26T07:27:35.253Z,3.35
2022-10-26T07:30:40.448Z,6.45
2022-10-26T07:33:45.219Z,3.38
2022-10-26T07:36:48.855Z,1.97
2022-10-26T07:39:52.159Z,5.57
2022-10-26T07:43:00.498Z,2.47
2022-10-26T07:46:04.831Z,2.30
2022-10-26T07:49:07.808Z,3.33
2022-10-26T07:52:11.502Z,3.73
2022-10-26T07:55:14.896Z,5.70
2022-10-26T07:58:17.986Z,11.60
2022-10-26T08:01:21.701Z,6.35
2022-10-26T08:04:25.080Z,4.65
2022-10-26T08:07:28.689Z,3.57
2022-10-26T08:10:31.614Z,3.33
2022-10-26T08:13:36.069Z,8.93
2022-10-26T08:16:42.634Z,5.25
2022-10-26T08:19:47.919Z,4.07
2022-10-26T08:22:51.685Z,3.33
2022-10-26T08:26:02.281Z,2.95
2022-10-26T08:29:05.586Z,4.38
2022-10-26T08:32:09.177Z,2.20
2022-10-26T08:35:13.073Z,2.90
2022-10-26T08:38:16.607Z,4.20
2022-10-26T08:41:38.380Z,4.50
2022-10-26T08:44:48.299Z,4.03
2022-10-26T08:47:56.608Z,5.07
2022-10-26T08:51:09.601Z,9.65
2022-10-26T08:54:21.952Z,9.10
2022-10-26T08:57:34.667Z,29.50
2022-10-26T09:00:39.439Z,12.82
2022-10-26T09:03:43.114Z,9.45
2022-10-26T09:07:25.377Z,11.63
2022-10-26T09:10:37.489Z,24.13
2022-10-26T09:14:13.892Z,14.80
2022-10-26T09:17:48.122Z,13.48
2022-10-26T09:20:57.945Z,27.55
2022-10-26T09:24:15.888Z,38.13
2022-10-26T09:27:23.005Z,34.80
2022-10-26T09:30:26.029Z,46.90
2022-10-26T09:33:32.078Z,51.25
2022-10-26T09:36:37.423Z,58.60
2022-10-26T09:39:47.853Z,57.28
2022-10-26T09:42:53.454Z,47.30
2022-10-26T09:45:56.715Z,49.83
2022-10-26T09:49:08.962Z,40.65
2022-10-26T09:52:12.578Z,59.40
2022-10-26T09:55:16.579Z,52.60
2022-10-26T09:58:25.456Z,47.83
2022-10-26T10:01:30.296Z,42.88
2022-10-26T10:04:34.755Z,47.97
2022-10-26T10:07:40.064Z,49.03
2022-10-26T10:10:56.814Z,40.00
2022-10-26T10:14:09.251Z,34.50
2022-10-26T10:17:23.772Z,51.67
2022-10-26T10:20:34.066Z,63.50
2022-10-26T10:23:55.710Z,61.83
2022-10-26T10:27:02.998Z,70.57
2022-10-26T10:30:24.422Z,57.43
2022-10-26T10:33:39.802Z,76.85
2022-10-26T10:36:44.187Z,76.10
2022-10-26T10:39:48.502Z,54.15
2022-10-26T10:42:54.377Z,57.67
2022-10-26T10:46:00.015Z,50.70
2022-10-26T10:49:06.428Z,61.75
2022-10-26T10:52:25.626Z,68.22
2022-10-26T10:55:29.975Z,54.53
2022-10-26T10:58:45.840Z,49.28
2022-10-26T11:02:07.655Z,45.97
2022-10-26T11:05:24.746Z,50.88
2022-10-26T11:08:42.012Z,50.25
2022-10-26T11:11:54.835Z,47.53
2022-10-26T11:15:19.386Z,44.70
2022-10-26T11:18:35.716Z,48.20
2022-10-26T11:21:39.137Z,47.42
2022-10-26T11:24:51.502Z,43.78
2022-10-26T11:28:20.333Z,42.28
2022-10-26T11:31:39.946Z,35.28
2022-10-26T11:35:01.153Z,31.53
2022-10-26T11:38:46.059Z,30.00
2022-10-26T11:41:59.860Z,30.45
2022-10-26T11:45:24.390Z,70.82
2022-10-26T11:48:54.226Z,67.18
2022-10-26T11:52:19.900Z,65.23
2022-10-26T11:55:25.525Z,38.20
2022-10-26T11:58:29.649Z,33.67
2022-10-26T12:01:35.563Z,35.35
2022-10-26T12:04:39.842Z,33.58
2022-10-26T12:07:58.661Z,37.57
2022-10-26T12:11:33.464Z,29.17
2022-10-26T12:14:50.582Z,29.65
2022-10-26T12:17:54.287Z,33.17
2022-10-26T12:21:05.151Z,29.58
2022-10-26T12:24:43.719Z,31.30
2022-10-26T12:30:51.543Z,50.35
2022-10-26T12:33:55.557Z,42.70
2022-10-26T12:36:59.491Z,36.42
2022-10-26T12:40:34.295Z,37.10
2022-10-26T12:43:42.266Z,43.92
2022-10-26T12:46:46.322Z,51.45
2022-10-26T12:50:07.260Z,52.83
2022-10-26T12:53:18.130Z,33.65
2022-10-26T12:56:33.019Z,23.93
2022-10-26T12:59:59.561Z,27.08
2022-10-26T13:03:20.270Z,30.33
2022-10-26T13:06:51.029Z,29.58
2022-10-26T13:10:06.854Z,29.17
2022-10-26T13:13:24.220Z,35.17
2022-10-26T13:16:29.801Z,39.40
2022-10-26T13:19:37.787Z,57.45
2022-10-26T13:22:48.276Z,69.53
2022-10-26T13:26:17.769Z,70.95
2022-10-26T13:29:21.092Z,76.00
2022-10-26T13:32:24.066Z,75.07
2022-10-26T13:35:28.249Z,61.22
2022-10-26T13:38:35.611Z,48.53
2022-10-26T13:41:41.727Z,58.15
2022-10-26T13:45:04.344Z,52.43
2022-10-26T13:48:17.767Z,43.88
2022-10-26T13:51:35.997Z,44.22
2022-10-26T13:54:46.853Z,63.42
2022-10-26T13:58:22.418Z,114.47
2022-10-26T14:01:27.452Z,101.57
2022-10-26T14:04:30.381Z,34.05
2022-10-26T14:07:38.352Z,31.90
2022-10-26T14:10:46.684Z,96.20
2022-10-26T14:13:51.734Z,38.80
2022-10-26T14:16:57.077Z,35.65
2022-10-26T14:20:01.269Z,35.45
2022-10-26T14:23:05.208Z,39.85
2022-10-26T14:26:08.052Z,36.28
2022-10-26T14:29:21.603Z,48.63
2022-10-26T14:32:34.046Z,68.28
2022-10-26T14:35:42.951Z,69.03
2022-10-26T14:38:48.644Z,53.05
2022-10-26T14:41:54.483Z,44.05
2022-10-26T14:44:59.517Z,49.15
2022-10-26T14:48:05.157Z,57.43
2022-10-26T14:51:17.045Z,55.72
2022-10-26T14:54:28.354Z,60.92
2022-10-26T14:57:36.882Z,56.92
2022-10-26T15:00:41.127Z,45.50
2022-10-26T15:03:46.406Z,40.67
2022-10-26T15:06:49.308Z,90.43
2022-10-26T15:09:54.230Z,133.98
2022-10-26T15:12:57.422Z,138.95
2022-10-26T15:16:19.538Z,88.57
2022-10-26T15:19:24.864Z,81.22
2022-10-26T15:22:32.316Z,65.70
2022-10-26T15:25:36.655Z,68.07
2022-10-26T15:28:44.711Z,59.25
2022-10-26T15:31:48.115Z,59.28
2022-10-26T15:35:20.499Z,57.65
2022-10-26T15:38:29.829Z,47.77
2022-10-26T15:41:40.071Z,46.15
2022-10-26T15:44:46.014Z,41.97
2022-10-26T15:47:52.718Z,41.65
2022-10-26T15:50:59.029Z,32.60
2022-10-26T15:54:05.878Z,23.45
2022-10-26T15:57:15.428Z,54.55
2022-10-26T16:00:21.582Z,91.00
2022-10-26T16:03:26.597Z,62.50
2022-10-26T16:06:33.468Z,47.33
2022-10-26T16:09:36.435Z,37.60
2022-10-26T16:12:39.389Z,23.60
2022-10-26T16:15:42.856Z,17.15
2022-10-26T16:18:47.045Z,14.27
2022-10-26T16:21:54.186Z,15.57
2022-10-26T16:24:58.233Z,16.10
2022-10-26T16:28:02.651Z,13.60
2022-10-26T16:31:14.695Z,13.85
2022-10-26T16:34:18.861Z,26.98
2022-10-26T16:37:21.747Z,26.47
2022-10-26T16:40:24.669Z,55.33
2022-10-26T16:43:27.677Z,44.17
2022-10-26T16:46:30.803Z,30.35
2022-10-26T16:49:34.006Z,37.70
2022-10-26T16:52:38.300Z,30.15
2022-10-26T16:58:44.319Z,48.90
2022-10-26T17:01:47.262Z,32.03
2022-10-26T17:04:51.061Z,35.58
2022-10-26T17:07:53.999Z,56.08
2022-10-26T17:11:08.793Z,72.87
2022-10-26T17:14:12.424Z,67.28
2022-10-26T17:17:16.110Z,76.25
2022-10-26T17:20:19.297Z,50.80
2022-10-26T17:23:23.387Z,40.42
2022-10-26T17:26:26.330Z,53.78
2022-10-26T17:29:30.167Z,55.47
2022-10-26T17:32:33.423Z,27.73
2022-10-26T17:35:37.329Z,22.63
2022-10-26T17:38:43.201Z,20.30
2022-10-26T17:41:46.835Z,16.10
2022-10-26T17:44:49.800Z,9.82
2022-10-26T17:47:53.195Z,10.15
2022-10-26T17:51:00.293Z,13.20
2022-10-26T17:54:04.134Z,10.90
2022-10-26T17:57:07.922Z,9.25
2022-10-26T18:00:12.311Z,14.10
2022-10-26T18:03:15.676Z,12.27
2022-10-26T18:06:19.044Z,14.25
2022-10-26T18:09:22.752Z,13.60
2022-10-26T18:12:25.630Z,14.20
2022-10-26T18:15:29.023Z,14.85
2022-10-26T18:18:31.866Z,17.52
2022-10-26T18:21:39.291Z,27.20
2022-10-26T18:24:42.136Z,25.70
2022-10-26T18:27:45.378Z,25.95
2022-10-26T18:30:48.253Z,31.13
2022-10-26T18:34:02.380Z,33.03
2022-10-26T18:37:05.329Z,34.97
2022-10-26T18:40:09.528Z,23.13
2022-10-26T18:43:13.231Z,36.30
2022-10-26T18:46:25.786Z,38.20
2022-10-26T18:49:29.500Z,42.30
2022-10-26T18:52:32.441Z,37.50
2022-10-26T18:55:36.127Z,39.38
2022-10-26T18:58:42.145Z,42.80
2022-10-26T19:01:47.355Z,41.88
2022-10-26T19:04:53.629Z,38.30
2022-10-26T19:07:57.247Z,33.83
2022-10-26T19:11:06.212Z,33.17
2022-10-26T19:14:10.403Z,31.13
2022-10-26T19:17:13.372Z,33.10
2022-10-26T19:20:17.137Z,44.25
2022-10-26T19:23:20.213Z,20.17
2022-10-26T19:26:28.718Z,17.67
2022-10-26T19:29:33.913Z,11.55
2022-10-26T19:32:37.630Z,9.88
2022-10-26T19:35:41.966Z,11.27
2022-10-26T19:38:45.631Z,10.73
2022-10-26T19:41:48.908Z,15.57
2022-10-26T19:44:51.740Z,14.77
2022-10-26T19:47:54.719Z,16.13
2022-10-26T19:50:58.404Z,15.63
2022-10-26T19:54:03.951Z,12.90
2022-10-26T19:57:08.180Z,30.65
2022-10-26T20:00:12.536Z,47.88
2022-10-26T20:03:15.955Z,45.63
2022-10-26T20:06:20.277Z,45.30
2022-10-26T20:09:23.990Z,43.53
2022-10-26T20:12:27.015Z,40.17
2022-10-26T20:15:30.618Z,43.10
2022-10-26T20:18:34.606Z,44.75
2022-10-26T20:21:38.547Z,45.42
2022-10-26T20:24:42.231Z,47.17
2022-10-26T20:27:48.802Z,45.35
2022-10-26T20:30:53.167Z,42.85
2022-10-26T20:33:56.016Z,29.02
2022-10-26T20:36:59.559Z,44.27
2022-10-26T20:40:03.566Z,34.60
2022-10-26T20:43:07.955Z,38.00
2022-10-26T20:46:18.097Z,29.10
2022-10-26T20:49:21.624Z,33.90
2022-10-26T20:52:36.912Z,40.55
2022-10-26T20:55:58.647Z,51.10
2022-10-26T20:59:04.032Z,35.17
2022-10-26T21:02:10.908Z,31.73
2022-10-26T21:05:14.835Z,27.50
2022-10-26T21:08:18.783Z,31.97
2022-10-26T21:11:23.275Z,31.00
2022-10-26T21:14:29.037Z,30.95
2022-10-26T21:17:34.925Z,22.90
2022-10-26T21:20:38.614Z,25.08
2022-10-26T21:23:42.035Z,22.00
2022-10-26T21:26:45.627Z,18.85
2022-10-26T21:29:48.996Z,24.33
2022-10-26T21:36:06.220Z,17.88
2022-10-26T21:39:09.646Z,17.10
2022-10-26T21:42:13.279Z,16.17
2022-10-26T21:45:16.294Z,15.05
2022-10-26T21:48:19.127Z,15.27
2022-10-26T21:51:22.279Z,15.55
2022-10-26T21:54:26.301Z,16.10
2022-10-26T21:57:29.862Z,19.95
2022-10-26T22:00:33.451Z,18.08
2022-10-26T22:03:37.821Z,15.48
2022-10-26T22:06:41.529Z,15.85
2022-10-26T22:10:00.474Z,16.57
2022-10-26T22:13:09.001Z,15.35
2022-10-26T22:16:27.525Z,16.02
2022-10-26T22:19:31.203Z,15.80
2022-10-26T22:22:34.817Z,16.13
2022-10-26T22:25:38.466Z,28.60
2022-10-26T22:28:44.021Z,20.80
2022-10-26T22:31:47.427Z,14.27
2022-10-26T22:35:00.248Z,15.95
2022-10-26T22:38:14.321Z,21.98
2022-10-26T22:41:19.394Z,19.97
2022-10-26T22:44:23.081Z,27.48
2022-10-26T22:47:27.641Z,27.10
2022-10-26T22:50:31.358Z,25.70
2022-10-26T22:53:34.828Z,23.85
2022-10-26T22:56:39.407Z,20.33
2022-10-26T22:59:43.179Z,20.75
2022-10-26T23:02:46.441Z,14.18
2022-10-26T23:05:50.508Z,21.17
2022-10-26T23:08:54.267Z,32.42
2022-10-26T23:11:58.167Z,32.17
2022-10-26T23:15:01.826Z,25.20
2022-10-26T23:18:05.933Z,39.67
2022-10-26T23:21:11.035Z,36.80
2022-10-26T23:24:15.064Z,29.48
2022-10-26T23:27:18.651Z,29.05
2022-10-26T23:30:22.580Z,24.27
2022-10-26T23:33:26.184Z,27.95
2022-10-26T23:36:30.342Z,30.05
2022-10-26T23:39:33.969Z,32.88
2022-10-26T23:42:37.932Z,32.40
2022-10-26T23:45:42.414Z,36.33
2022-10-26T23:48:46.698Z,37.53
2022-10-26T23:51:50.506Z,40.43
2022-10-26T23:54:54.317Z,46.38
2022-10-26T23:57:57.555Z,36.05
